CheckWX is a tool to help pilots better visualize weather data.  It is not intended as a substitute for an official pre-flight weather briefing.

20:31:31 UTC

SLSA METAR
Santa Ana Del Yacuma Airport
Santa Ana del Yacuma, Bolivia
Current

32 mins ago

SLSA 132000Z 17006KT 8000 VCSH SCT017 FEW023CB BKN200 28/24 Q1007
Observed
Dec-13 @ 20:00 UTC
Wind
  • 170° at 6 KTS
Visibility
8,000 meters
Flight Rules
MVFR
Cloud Levels
  • Scattered at 1,700' AGL
  • Few at 2,300' AGL
  • Broken at 20,000' AGL
Temperature
28°C / 82°F
Dewpoint
24°C / 75°F
Heat Index
32°C / 89°F
Humidity
79%
Altimeter
29.73" Hg
Pressure
1006.92 hPa
Previous

2 hours ago

SLSA 131900Z 30006KT 8000 VCSH BKN017 FEW023CB BKN200 26/24 Q1008
Observed
Dec-13 @ 19:00 UTC
Wind
  • 300° at 6 KTS
Visibility
8,000 meters
Flight Rules
MVFR
Cloud Levels
  • Broken at 1,700' AGL
  • Few at 2,300' AGL
  • Broken at 20,000' AGL
Temperature
26°C / 79°F
Dewpoint
24°C / 75°F
Humidity
89%
Altimeter
29.76" Hg
Pressure
1007.92 hPa
Previous

3 hours ago

SLSA 131800Z 27006KT 8000 VCSH BKN017 FEW023CB BKN200 27/24 Q1008
Observed
Dec-13 @ 18:00 UTC
Wind
  • 270° at 6 KTS
Visibility
8,000 meters
Flight Rules
MVFR
Cloud Levels
  • Broken at 1,700' AGL
  • Few at 2,300' AGL
  • Broken at 20,000' AGL
Temperature
27°C / 81°F
Dewpoint
24°C / 75°F
Heat Index
31°C / 87°F
Humidity
84%
Altimeter
29.76" Hg
Pressure
1007.92 hPa